createdAt,value
2018-01-13T00:00:43.564Z,10.15
2018-01-13T00:03:11.149Z,10.32
2018-01-13T00:05:38.641Z,11.52
2018-01-13T00:08:06.136Z,10.93
2018-01-13T00:10:33.673Z,9.95
2018-01-13T00:13:01.167Z,11.52
2018-01-13T00:15:28.654Z,10.85
2018-01-13T00:17:56.147Z,11.70
2018-01-13T00:20:23.637Z,11.68
2018-01-13T00:22:51.146Z,11.30
2018-01-13T00:25:18.640Z,9.65
2018-01-13T00:27:47.097Z,11.05
2018-01-13T00:30:14.590Z,10.65
2018-01-13T00:32:42.106Z,11.88
2018-01-13T00:35:09.997Z,11.30
2018-01-13T00:37:37.505Z,12.68
2018-01-13T00:40:05.942Z,11.73
2018-01-13T00:42:33.471Z,11.65
2018-01-13T00:45:00.965Z,12.52
2018-01-13T00:47:28.552Z,10.82
2018-01-13T00:49:56.086Z,11.27
2018-01-13T00:52:23.605Z,12.50
2018-01-13T00:54:51.127Z,11.98
2018-01-13T00:57:18.641Z,11.63
2018-01-13T00:59:46.248Z,12.85
2018-01-13T01:02:13.742Z,13.57
2018-01-13T01:04:41.240Z,11.85
2018-01-13T01:07:08.762Z,12.02
2018-01-13T01:09:36.259Z,12.35
2018-01-13T01:12:03.758Z,12.27
2018-01-13T01:14:31.254Z,11.90
2018-01-13T01:16:58.752Z,11.38
2018-01-13T01:19:26.261Z,13.10
2018-01-13T01:21:53.754Z,12.02
2018-01-13T01:24:22.186Z,13.00
2018-01-13T01:26:49.682Z,12.77
2018-01-13T01:29:17.178Z,13.23
2018-01-13T01:31:44.689Z,12.95
2018-01-13T01:34:12.287Z,13.13
2018-01-13T01:36:39.788Z,13.23
2018-01-13T01:39:08.269Z,12.45
2018-01-13T01:41:36.703Z,14.68
2018-01-13T01:44:04.209Z,13.18
2018-01-13T01:46:31.716Z,12.85
2018-01-13T01:48:59.205Z,13.82
2018-01-13T01:51:26.716Z,12.35
2018-01-13T01:53:54.205Z,11.43
2018-01-13T01:56:21.722Z,12.82
2018-01-13T01:58:50.201Z,11.85
2018-01-13T02:01:18.638Z,12.20
2018-01-13T02:03:46.137Z,13.13
2018-01-13T02:06:13.635Z,13.55
2018-01-13T02:08:41.158Z,12.93
2018-01-13T02:11:08.751Z,12.82
2018-01-13T02:13:36.247Z,13.23
2018-01-13T02:16:03.755Z,13.88
2018-01-13T02:18:31.246Z,11.88
2018-01-13T02:20:58.761Z,14.43
2018-01-13T02:23:26.249Z,11.30
2018-01-13T02:25:53.741Z,11.50
2018-01-13T02:28:21.244Z,11.05
2018-01-13T02:30:49.709Z,11.90
2018-01-13T02:33:18.249Z,11.20
2018-01-13T02:35:46.094Z,11.65
2018-01-13T02:38:13.582Z,10.90
2018-01-13T02:40:41.074Z,11.80
2018-01-13T02:43:08.569Z,9.88
2018-01-13T02:45:36.083Z,9.95
2018-01-13T02:48:03.679Z,12.32
2018-01-13T02:50:31.173Z,10.50
2018-01-13T02:52:58.680Z,10.10
2018-01-13T02:55:26.255Z,9.90
2018-01-13T02:57:53.778Z,10.40
2018-01-13T03:00:21.261Z,9.18
2018-01-13T03:02:48.752Z,10.27
2018-01-13T03:05:16.241Z,10.73
2018-01-13T03:07:44.708Z,10.00
2018-01-13T03:10:12.257Z,9.65
2018-01-13T03:12:39.890Z,10.75
2018-01-13T03:15:07.426Z,12.25
2018-01-13T03:17:34.933Z,11.80
2018-01-13T03:20:02.456Z,11.90
2018-01-13T03:22:29.979Z,11.02
2018-01-13T03:24:57.485Z,11.77
2018-01-13T03:27:25.003Z,11.02
2018-01-13T03:29:52.529Z,12.30
2018-01-13T03:32:20.057Z,12.40
2018-01-13T03:34:47.581Z,13.00
2018-01-13T03:37:15.086Z,13.15
2018-01-13T03:39:42.624Z,14.00
2018-01-13T03:42:10.139Z,10.75
2018-01-13T03:44:37.654Z,13.32
2018-01-13T03:47:05.210Z,11.50
2018-01-13T03:49:32.725Z,12.27
2018-01-13T03:52:00.329Z,12.63
2018-01-13T03:54:27.836Z,11.50
2018-01-13T03:56:55.755Z,11.35
2018-01-13T03:59:23.320Z,10.38
2018-01-13T04:01:51.005Z,11.00
2018-01-13T04:04:18.521Z,10.57
2018-01-13T04:06:46.533Z,10.32
2018-01-13T04:09:14.053Z,10.90
2018-01-13T04:11:41.560Z,10.57
2018-01-13T04:14:09.097Z,12.32
2018-01-13T04:16:36.611Z,11.07
2018-01-13T04:19:04.132Z,9.98
2018-01-13T04:21:31.645Z,11.90
2018-01-13T04:23:59.177Z,10.60
2018-01-13T04:26:26.689Z,12.57
2018-01-13T04:28:54.202Z,11.80
2018-01-13T04:31:21.721Z,12.50
2018-01-13T04:33:49.978Z,11.85
2018-01-13T04:36:17.504Z,13.35
2018-01-13T04:38:45.014Z,12.60
2018-01-13T04:41:12.539Z,13.45
2018-01-13T04:43:40.093Z,13.05
2018-01-13T04:46:09.556Z,12.30
2018-01-13T04:48:38.162Z,12.05
2018-01-13T04:51:05.486Z,11.23
2018-01-13T04:53:33.013Z,13.80
2018-01-13T04:56:00.525Z,11.57
2018-01-13T04:58:28.062Z,11.35
2018-01-13T05:00:56.602Z,12.20
2018-01-13T05:03:24.109Z,11.75
2018-01-13T05:05:51.758Z,11.68
2018-01-13T05:08:19.385Z,10.75
2018-01-13T05:10:46.893Z,11.98
2018-01-13T05:13:14.424Z,11.80
2018-01-13T05:15:41.935Z,12.95
2018-01-13T05:18:10.442Z,11.70
2018-01-13T05:20:37.957Z,12.30
2018-01-13T05:23:05.562Z,12.40
2018-01-13T05:25:33.085Z,12.25
2018-01-13T05:28:00.599Z,11.65
2018-01-13T05:30:28.117Z,11.77
2018-01-13T05:32:56.625Z,12.23
2018-01-13T05:35:24.161Z,13.77
2018-01-13T05:37:51.841Z,12.43
2018-01-13T05:40:19.353Z,13.27
2018-01-13T05:42:46.889Z,12.02
2018-01-13T05:45:14.421Z,13.25
2018-01-13T05:47:42.079Z,13.05
2018-01-13T05:50:09.593Z,13.07
2018-01-13T05:52:37.114Z,13.90
2018-01-13T05:55:05.384Z,13.00
2018-01-13T05:57:32.905Z,13.70
2018-01-13T06:00:00.423Z,13.62
2018-01-13T06:02:27.943Z,13.95
2018-01-13T06:04:55.461Z,12.82
2018-01-13T06:07:22.978Z,14.65
2018-01-13T06:09:50.509Z,13.30
2018-01-13T06:12:18.026Z,13.65
2018-01-13T06:14:45.550Z,13.60
2018-01-13T06:17:14.044Z,13.35
2018-01-13T06:19:41.563Z,11.95
2018-01-13T06:22:09.077Z,12.88
2018-01-13T06:24:36.597Z,13.62
2018-01-13T06:27:04.116Z,12.63
2018-01-13T06:29:31.634Z,12.27
2018-01-13T06:31:59.154Z,13.38
2018-01-13T06:34:26.677Z,12.32
2018-01-13T06:36:54.206Z,13.00
2018-01-13T06:39:21.721Z,12.65
2018-01-13T06:41:49.239Z,12.60
2018-01-13T06:44:17.767Z,14.10
2018-01-13T06:46:47.270Z,13.50
2018-01-13T06:49:14.815Z,12.95
2018-01-13T06:51:42.354Z,13.35
2018-01-13T06:54:10.881Z,12.48
2018-01-13T06:56:38.397Z,14.35
2018-01-13T06:59:05.981Z,13.00
2018-01-13T07:01:33.507Z,13.80
2018-01-13T07:04:01.039Z,12.13
2018-01-13T07:06:28.566Z,13.00
2018-01-13T07:08:56.087Z,14.63
2018-01-13T07:11:23.610Z,13.45
2018-01-13T07:13:51.134Z,12.65
2018-01-13T07:16:18.658Z,13.30
2018-01-13T07:18:46.196Z,13.62
2018-01-13T07:21:13.718Z,13.88
2018-01-13T07:23:41.238Z,12.90
2018-01-13T07:26:08.799Z,14.18
2018-01-13T07:28:36.427Z,13.13
2018-01-13T07:31:03.949Z,13.70
2018-01-13T07:33:31.469Z,13.65
2018-01-13T07:35:59.068Z,13.35
2018-01-13T07:38:26.594Z,14.35
2018-01-13T07:40:54.463Z,15.05
2018-01-13T07:43:21.974Z,16.37
2018-01-13T07:45:49.485Z,15.55
2018-01-13T07:48:17.018Z,16.15
2018-01-13T07:50:44.535Z,13.30
2018-01-13T07:53:11.861Z,14.43
2018-01-13T07:55:40.391Z,13.75
2018-01-13T07:58:07.909Z,13.65
2018-01-13T08:00:35.441Z,14.45
2018-01-13T08:03:02.958Z,14.68
2018-01-13T08:05:31.508Z,14.38
2018-01-13T08:08:00.040Z,12.57
2018-01-13T08:10:27.564Z,14.73
2018-01-13T08:12:55.086Z,13.43
2018-01-13T08:15:22.597Z,13.48
2018-01-13T08:17:50.101Z,15.60
2018-01-13T08:20:17.621Z,13.05
2018-01-13T08:22:45.153Z,13.73
2018-01-13T08:25:12.670Z,14.02
2018-01-13T08:27:40.198Z,12.93
2018-01-13T08:30:08.761Z,13.40
2018-01-13T08:32:36.357Z,13.88
2018-01-13T08:35:03.870Z,15.00
2018-01-13T08:37:31.386Z,13.90
2018-01-13T08:39:59.735Z,12.55
2018-01-13T08:42:27.251Z,12.07
2018-01-13T08:44:54.763Z,12.25
2018-01-13T08:47:22.284Z,11.65
2018-01-13T08:49:49.794Z,12.82
2018-01-13T08:52:18.425Z,11.75
2018-01-13T08:54:46.031Z,11.75
2018-01-13T08:57:13.543Z,9.82
2018-01-13T08:59:40.865Z,10.65
2018-01-13T09:02:08.621Z,11.52
2018-01-13T09:04:35.943Z,10.80
2018-01-13T09:07:03.474Z,11.82
2018-01-13T09:09:31.080Z,12.50
2018-01-13T09:11:58.634Z,12.40
2018-01-13T09:14:26.152Z,11.00
2018-01-13T09:16:53.689Z,12.98
2018-01-13T09:19:21.204Z,11.40
2018-01-13T09:21:48.718Z,11.70
2018-01-13T09:24:16.244Z,11.55
2018-01-13T09:26:43.770Z,11.18
2018-01-13T09:29:11.292Z,11.32
2018-01-13T09:31:38.808Z,11.82
2018-01-13T09:34:06.359Z,12.65
2018-01-13T09:36:35.121Z,11.95
2018-01-13T09:39:02.642Z,13.20
2018-01-13T09:41:30.154Z,11.23
2018-01-13T09:43:57.675Z,10.05
2018-01-13T09:46:25.193Z,10.90
2018-01-13T09:48:54.547Z,10.40
2018-01-13T09:51:22.163Z,10.48
2018-01-13T09:53:49.668Z,9.10
2018-01-13T09:56:17.229Z,10.25
2018-01-13T09:58:44.737Z,10.73
2018-01-13T10:01:12.283Z,8.65
2018-01-13T10:03:39.815Z,9.55
2018-01-13T10:06:07.497Z,9.60
2018-01-13T10:08:35.021Z,9.73
2018-01-13T10:11:02.526Z,10.60
2018-01-13T10:13:30.026Z,9.38
2018-01-13T10:15:57.545Z,9.45
2018-01-13T10:18:25.046Z,9.40
2018-01-13T10:20:52.561Z,9.05
2018-01-13T10:23:20.070Z,10.30
2018-01-13T10:25:47.582Z,10.05
2018-01-13T10:28:15.090Z,9.90
2018-01-13T10:30:42.701Z,10.45
2018-01-13T10:33:10.206Z,9.50
2018-01-13T10:35:37.730Z,9.40
2018-01-13T10:38:05.990Z,9.65
2018-01-13T10:40:33.498Z,8.27
2018-01-13T10:43:01.002Z,11.40
2018-01-13T10:45:28.533Z,9.63
2018-01-13T10:47:56.130Z,8.70
2018-01-13T10:50:23.655Z,10.15
2018-01-13T10:52:51.161Z,10.02
2018-01-13T10:55:18.670Z,9.43
2018-01-13T10:57:46.178Z,11.12
2018-01-13T11:00:13.693Z,10.38
2018-01-13T11:02:41.205Z,9.98
2018-01-13T11:05:08.728Z,9.90
2018-01-13T11:07:36.238Z,10.40
2018-01-13T11:10:03.750Z,10.60
2018-01-13T11:12:31.321Z,10.48
2018-01-13T11:14:59.190Z,10.75
2018-01-13T11:17:26.705Z,11.73
2018-01-13T11:19:54.218Z,10.70
2018-01-13T11:22:21.734Z,11.90
2018-01-13T11:24:49.253Z,12.32
2018-01-13T11:27:16.766Z,11.23
2018-01-13T11:29:44.279Z,11.70
2018-01-13T11:32:11.790Z,10.63
2018-01-13T11:34:41.245Z,10.35
2018-01-13T11:37:08.752Z,11.00
2018-01-13T11:39:36.262Z,10.57
2018-01-13T11:42:03.771Z,11.05
2018-01-13T11:44:33.226Z,10.52
2018-01-13T11:47:00.745Z,9.95
2018-01-13T11:49:28.240Z,9.48
2018-01-13T11:51:55.745Z,10.70
2018-01-13T11:54:23.257Z,10.80
2018-01-13T11:56:50.773Z,10.55
2018-01-13T11:59:18.279Z,10.48
2018-01-13T12:01:45.779Z,9.80
2018-01-13T12:04:13.281Z,9.68
2018-01-13T12:06:40.794Z,10.20
2018-01-13T12:09:08.302Z,9.80
2018-01-13T12:11:35.813Z,10.10
2018-01-13T12:14:03.093Z,10.75
2018-01-13T12:16:31.325Z,10.30
2018-01-13T12:18:58.830Z,10.98
2018-01-13T12:21:26.342Z,11.52
2018-01-13T12:23:54.846Z,10.80
2018-01-13T12:26:22.361Z,10.30
2018-01-13T12:28:49.871Z,10.57
2018-01-13T12:31:17.381Z,9.95
2018-01-13T12:33:44.890Z,10.23
2018-01-13T12:36:12.397Z,10.43
2018-01-13T12:38:39.909Z,10.25
2018-01-13T12:41:07.432Z,10.15
2018-01-13T12:43:34.962Z,11.10
2018-01-13T12:46:02.504Z,9.88
2018-01-13T12:48:30.020Z,10.20
2018-01-13T12:50:57.549Z,9.93
2018-01-13T12:53:25.058Z,11.25
2018-01-13T12:55:53.462Z,11.23
2018-01-13T12:58:21.052Z,11.12
2018-01-13T13:00:48.573Z,10.70
2018-01-13T13:03:16.085Z,10.48
2018-01-13T13:05:43.598Z,10.75
2018-01-13T13:08:11.145Z,11.10
2018-01-13T13:10:40.778Z,10.10
2018-01-13T13:13:10.239Z,10.23
2018-01-13T13:15:38.323Z,11.07
2018-01-13T13:18:05.833Z,9.77
2018-01-13T13:20:34.326Z,9.85
2018-01-13T13:23:01.850Z,11.00
2018-01-13T13:25:29.357Z,10.63
2018-01-13T13:27:56.863Z,9.63
2018-01-13T13:30:24.518Z,12.13
2018-01-13T13:32:52.025Z,17.30
2018-01-13T13:35:19.541Z,14.60
2018-01-13T13:37:47.059Z,11.05
2018-01-13T13:40:14.661Z,11.30
2018-01-13T13:42:42.181Z,9.98
2018-01-13T13:45:09.690Z,15.00
2018-01-13T13:47:37.201Z,9.02
2018-01-13T13:50:04.797Z,10.73
2018-01-13T13:52:32.317Z,10.88
2018-01-13T13:54:59.830Z,9.98
2018-01-13T13:57:27.346Z,9.23
2018-01-13T13:59:54.862Z,10.80
2018-01-13T14:02:23.357Z,10.40
2018-01-13T14:04:50.858Z,9.80
2018-01-13T14:07:18.394Z,10.48
2018-01-13T14:09:45.903Z,10.15
2018-01-13T14:12:14.406Z,10.98
2018-01-13T14:14:41.928Z,10.63
2018-01-13T14:17:09.448Z,10.95
2018-01-13T14:19:36.975Z,10.60
2018-01-13T14:22:04.481Z,10.32
2018-01-13T14:24:31.996Z,11.55
2018-01-13T14:26:59.516Z,10.45
2018-01-13T14:29:27.031Z,10.70
2018-01-13T14:31:54.548Z,10.80
2018-01-13T14:34:23.072Z,10.65
2018-01-13T14:36:50.606Z,11.00
2018-01-13T14:39:18.126Z,10.40
2018-01-13T14:41:45.658Z,10.02
2018-01-13T14:44:13.256Z,11.85
2018-01-13T14:46:40.770Z,10.25
2018-01-13T14:49:08.450Z,10.10
2018-01-13T14:51:35.964Z,10.25
2018-01-13T14:54:03.493Z,11.20
2018-01-13T14:56:31.015Z,11.35
2018-01-13T14:58:58.342Z,11.10
2018-01-13T15:01:25.861Z,11.55
2018-01-13T15:03:53.390Z,10.35
2018-01-13T15:06:20.903Z,11.35
2018-01-13T15:08:48.410Z,11.07
2018-01-13T15:11:15.916Z,11.35
2018-01-13T15:13:45.369Z,11.93
2018-01-13T15:16:12.906Z,11.27
2018-01-13T15:18:40.484Z,11.38
2018-01-13T15:21:07.992Z,10.95
2018-01-13T15:23:35.505Z,10.75
2018-01-13T15:26:03.019Z,10.98
2018-01-13T15:28:30.536Z,11.23
2018-01-13T15:30:58.050Z,11.20
2018-01-13T15:33:25.555Z,11.48
2018-01-13T15:35:53.081Z,10.48
2018-01-13T15:38:20.597Z,11.98
2018-01-13T15:40:48.115Z,10.73
2018-01-13T15:43:15.630Z,11.23
2018-01-13T15:45:43.133Z,10.80
2018-01-13T15:48:10.645Z,11.10
2018-01-13T15:50:38.160Z,10.88
2018-01-13T15:53:05.389Z,12.03
2018-01-13T15:55:32.897Z,12.02
2018-01-13T15:58:00.409Z,12.20
2018-01-13T16:00:27.914Z,11.35
2018-01-13T16:02:55.419Z,10.90
2018-01-13T16:05:22.930Z,11.73
2018-01-13T16:07:51.967Z,11.45
2018-01-13T16:10:21.429Z,11.38
2018-01-13T16:12:48.975Z,11.65
2018-01-13T16:15:16.489Z,12.70
2018-01-13T16:17:44.018Z,12.25
2018-01-13T16:20:11.534Z,10.05
2018-01-13T16:22:39.820Z,17.95
2018-01-13T16:25:07.373Z,14.20
2018-01-13T16:27:34.881Z,10.90
2018-01-13T16:30:02.399Z,10.15
2018-01-13T16:32:29.933Z,10.90
2018-01-13T16:34:57.469Z,11.85
2018-01-13T16:37:24.996Z,11.18
2018-01-13T16:39:52.497Z,11.20
2018-01-13T16:42:20.013Z,11.10
2018-01-13T16:44:48.545Z,9.80
2018-01-13T16:47:16.057Z,10.43
2018-01-13T16:49:43.600Z,10.35
2018-01-13T16:52:11.110Z,11.55
2018-01-13T16:54:38.625Z,10.45
2018-01-13T16:57:08.119Z,11.05
2018-01-13T16:59:37.613Z,10.38
2018-01-13T17:02:05.131Z,10.57
2018-01-13T17:04:32.689Z,11.82
2018-01-13T17:07:00.199Z,10.95
2018-01-13T17:09:27.705Z,11.55
2018-01-13T17:11:55.237Z,12.07
2018-01-13T17:14:23.820Z,11.12
2018-01-13T17:16:51.337Z,12.27
2018-01-13T17:19:18.861Z,11.82
2018-01-13T17:21:46.374Z,11.40
2018-01-13T17:24:13.888Z,11.90
2018-01-13T17:26:41.397Z,11.40
2018-01-13T17:29:10.862Z,11.10
2018-01-13T17:31:38.398Z,12.18
2018-01-13T17:34:05.905Z,12.98
2018-01-13T17:36:33.414Z,10.77
2018-01-13T17:39:00.930Z,9.93
2018-01-13T17:41:28.449Z,10.35
2018-01-13T17:43:55.970Z,10.90
2018-01-13T17:46:23.260Z,11.15
2018-01-13T17:48:50.774Z,9.38
2018-01-13T17:51:18.313Z,11.90
2018-01-13T17:53:45.843Z,9.38
2018-01-13T17:56:13.405Z,11.25
2018-01-13T17:58:40.913Z,10.95
2018-01-13T18:01:10.381Z,10.05
2018-01-13T18:03:37.901Z,10.93
2018-01-13T18:06:05.413Z,11.20
2018-01-13T18:08:32.959Z,12.68
2018-01-13T18:11:00.474Z,12.07
2018-01-13T18:13:27.988Z,13.40
2018-01-13T18:15:55.498Z,13.77
2018-01-13T18:18:23.054Z,13.62
2018-01-13T18:20:50.572Z,12.95
2018-01-13T18:23:18.097Z,10.98
2018-01-13T18:25:47.609Z,12.93
2018-01-13T18:28:15.146Z,12.40
2018-01-13T18:30:42.684Z,13.30
2018-01-13T18:33:10.200Z,12.77
2018-01-13T18:35:37.743Z,12.52
2018-01-13T18:38:05.273Z,12.20
2018-01-13T18:40:32.808Z,12.75
2018-01-13T18:43:00.355Z,12.95
2018-01-13T18:45:27.874Z,12.52
2018-01-13T18:47:56.107Z,13.00
2018-01-13T18:50:25.616Z,13.13
2018-01-13T18:52:53.121Z,12.65
2018-01-13T18:55:20.643Z,12.37
2018-01-13T18:57:48.167Z,13.35
2018-01-13T19:00:15.658Z,12.73
2018-01-13T19:02:43.145Z,11.52
2018-01-13T19:05:10.637Z,12.30
2018-01-13T19:07:38.133Z,12.57
2018-01-13T19:10:05.632Z,13.55
2018-01-13T19:12:33.194Z,17.02
2018-01-13T19:15:00.686Z,13.40
2018-01-13T19:17:28.182Z,14.77
2018-01-13T19:19:55.689Z,12.95
2018-01-13T19:22:23.178Z,12.32
2018-01-13T19:24:50.673Z,12.27
2018-01-13T19:27:18.170Z,11.63
2018-01-13T19:29:45.664Z,12.40
2018-01-13T19:32:13.154Z,12.90
2018-01-13T19:34:40.650Z,12.85
2018-01-13T19:37:08.148Z,12.70
2018-01-13T19:39:35.665Z,12.25
2018-01-13T19:42:03.160Z,12.63
2018-01-13T19:44:31.750Z,13.35
2018-01-13T19:46:59.244Z,13.65
2018-01-13T19:49:26.762Z,13.62
2018-01-13T19:51:54.257Z,11.68
2018-01-13T19:54:21.753Z,11.98
2018-01-13T19:56:49.286Z,13.25
2018-01-13T19:59:16.777Z,12.63
2018-01-13T20:01:44.522Z,11.85
2018-01-13T20:04:12.053Z,13.70
2018-01-13T20:06:39.549Z,13.35
2018-01-13T20:09:07.154Z,11.70
2018-01-13T20:11:34.670Z,11.95
2018-01-13T20:14:02.182Z,11.20
2018-01-13T20:16:29.678Z,10.70
2018-01-13T20:18:57.176Z,12.73
2018-01-13T20:21:24.665Z,11.88
2018-01-13T20:23:52.181Z,10.80
2018-01-13T20:26:19.685Z,11.40
2018-01-13T20:28:47.201Z,11.32
2018-01-13T20:31:14.707Z,11.43
2018-01-13T20:33:42.217Z,11.00
2018-01-13T20:36:09.721Z,10.68
2018-01-13T20:38:37.507Z,11.25
2018-01-13T20:41:04.813Z,11.18
2018-01-13T20:43:33.242Z,10.50
2018-01-13T20:46:00.747Z,10.18
2018-01-13T20:48:28.390Z,9.95
2018-01-13T20:50:55.906Z,11.38
2018-01-13T20:53:23.410Z,10.25
2018-01-13T20:55:50.939Z,10.88
2018-01-13T20:58:18.430Z,9.40
2018-01-13T21:00:45.917Z,9.93
2018-01-13T21:03:13.422Z,10.05
2018-01-13T21:05:40.925Z,9.48
2018-01-13T21:08:08.414Z,9.02
2018-01-13T21:10:35.912Z,9.85
2018-01-13T21:13:03.402Z,8.93
2018-01-13T21:15:30.904Z,9.98
2018-01-13T21:17:58.390Z,9.18
2018-01-13T21:20:25.881Z,9.68
2018-01-13T21:22:53.385Z,9.50
2018-01-13T21:25:20.864Z,9.70
2018-01-13T21:27:48.537Z,10.63
2018-01-13T21:30:16.040Z,9.90
2018-01-13T21:32:43.579Z,9.27
2018-01-13T21:35:11.068Z,9.48
2018-01-13T21:37:38.555Z,10.02
2018-01-13T21:40:06.062Z,8.50
2018-01-13T21:42:34.600Z,8.38
2018-01-13T21:45:02.124Z,9.88
2018-01-13T21:47:29.719Z,9.40
2018-01-13T21:49:57.221Z,10.15
2018-01-13T21:52:24.726Z,9.02
2018-01-13T21:54:52.232Z,10.63
2018-01-13T21:57:19.534Z,9.70
2018-01-13T21:59:47.061Z,9.63
2018-01-13T22:02:14.552Z,9.88
2018-01-13T22:04:42.042Z,11.48
2018-01-13T22:07:09.533Z,10.23
2018-01-13T22:09:37.030Z,10.73
2018-01-13T22:12:04.515Z,9.70
2018-01-13T22:14:32.017Z,10.07
2018-01-13T22:16:59.699Z,9.13
2018-01-13T22:19:27.190Z,10.45
2018-01-13T22:21:54.707Z,9.75
2018-01-13T22:24:22.201Z,9.50
2018-01-13T22:26:49.690Z,10.13
2018-01-13T22:29:17.179Z,9.85
2018-01-13T22:31:44.666Z,10.55
2018-01-13T22:34:12.182Z,9.35
2018-01-13T22:36:39.433Z,10.38
2018-01-13T22:39:06.938Z,9.30
2018-01-13T22:41:34.429Z,9.27
2018-01-13T22:44:01.920Z,9.55
2018-01-13T22:46:29.230Z,8.65
2018-01-13T22:48:56.750Z,9.27
2018-01-13T22:51:24.234Z,8.57
2018-01-13T22:53:51.729Z,10.23
2018-01-13T22:56:19.233Z,9.85
2018-01-13T22:58:46.710Z,9.68
2018-01-13T23:01:14.198Z,9.45
2018-01-13T23:03:41.685Z,9.60
2018-01-13T23:06:09.173Z,9.18
2018-01-13T23:08:36.669Z,8.68
2018-01-13T23:11:05.150Z,9.40
2018-01-13T23:13:32.640Z,9.10
2018-01-13T23:16:00.122Z,8.95
2018-01-13T23:18:27.608Z,8.52
2018-01-13T23:20:55.114Z,9.60
2018-01-13T23:23:22.600Z,10.05
2018-01-13T23:25:50.081Z,9.02
2018-01-13T23:28:17.573Z,9.40
2018-01-13T23:30:45.079Z,10.23
2018-01-13T23:33:12.566Z,10.43
2018-01-13T23:35:40.069Z,10.15
2018-01-13T23:38:07.550Z,9.73
2018-01-13T23:40:35.049Z,9.75
2018-01-13T23:43:02.533Z,9.25
2018-01-13T23:45:30.018Z,9.35
2018-01-13T23:47:57.510Z,8.95
2018-01-13T23:50:25.004Z,8.57
2018-01-13T23:52:52.506Z,9.00
2018-01-13T23:55:20.056Z,9.82
2018-01-13T23:57:47.582Z,8.95
